»·PEaware :: N4A KJAC-KMCC

N4A :: KJAC-KMCC

FLIGHT INFORMATION

Flight Status: Arrived
Operator: Privately registered:
United States
More flights under this callsign
Pilot: Alec D. (17934)
Aircraft: CESSNA 510 CITATION MUSTANG
(C510)
More flights by this aircraft type
Origin: KJAC Jackson Hole
United States
Destination: KMCC McClellan
United States
More flights between these airports :: More routes between these airports
Route: ALPIN2 KICNE MLD J32 FMG DASHE
File this flight plan on PilotEdge
Remarks:
Altitude:
(Current/Filed)
36,000ft
Speed:
(Current/Filed)
330kts
Departed: 15-Mar-18 10:23 AM
Arrived: 15-Mar-18 12:35 PM
Distance/Time
Traveled:
565nm/2:11
Distance/Time
To Go:
Arrived

Flight Plot

Page will automatically refresh every two minutes.

Flight plan parsing failed; only flown route is shown


Map Options




Map Legend


Flown Route
Filed Route
Departure Airport
Arrival Airport
Navaid (VOR, NDB)
Fix

Horizontal Profiles

Position Reports

Time Latitude Longitude Heading Altitude Ground
Speed
15-Mar-18 09:57 43.599160 -110.738532 106 6453ft 0kts
15-Mar-18 09:58 43.599160 -110.738532 106 6453ft 0kts
15-Mar-18 09:59 43.599160 -110.738532 106 6453ft 0kts
15-Mar-18 10:00 43.599160 -110.738532 106 6453ft 0kts
15-Mar-18 10:01 43.599160 -110.738532 106 6453ft 0kts
15-Mar-18 10:02 43.599160 -110.738532 106 6453ft 0kts
15-Mar-18 10:03 43.599160 -110.738532 106 6453ft 0kts
15-Mar-18 10:04 43.599160 -110.738532 106 6453ft 0kts
15-Mar-18 10:05 43.599160 -110.738532 106 6453ft 0kts
15-Mar-18 10:06 43.599160 -110.738532 106 6453ft 0kts
15-Mar-18 10:07 43.599160 -110.738532 106 6453ft 0kts
15-Mar-18 10:08 43.599160 -110.738532 106 6453ft 0kts
15-Mar-18 10:09 43.599160 -110.738532 106 6453ft 0kts
15-Mar-18 10:10 43.599160 -110.738532 106 6453ft 0kts
15-Mar-18 10:11 43.599160 -110.738532 106 6453ft 0kts
15-Mar-18 10:12 43.599160 -110.738532 106 6453ft 0kts
15-Mar-18 10:13 43.599160 -110.738532 106 6453ft 0kts
15-Mar-18 10:14 43.599160 -110.738532 106 6453ft 0kts
15-Mar-18 10:15 43.599160 -110.738532 106 6453ft 0kts
15-Mar-18 10:16 43.599160 -110.738532 106 6453ft 0kts
15-Mar-18 10:17 43.600192 -110.738831 288 6453ft 7kts
15-Mar-18 10:18 43.604245 -110.737528 19 6453ft 24kts
15-Mar-18 10:19 43.610050 -110.734695 20 6453ft 23kts
15-Mar-18 10:20 43.613880 -110.732819 19 6453ft 11kts
15-Mar-18 10:21 43.614130 -110.734444 200 6453ft 37kts
15-Mar-18 10:22 43.589692 -110.747864 211 7254ft 129kts
15-Mar-18 10:23 43.554430 -110.784205 214 9224ft 173kts
15-Mar-18 10:24 43.508202 -110.814186 206 11464ft 189kts
15-Mar-18 10:25 43.458088 -110.844015 207 13673ft 202kts
15-Mar-18 10:26 43.406761 -110.875073 208 15851ft 210kts
15-Mar-18 10:27 43.351595 -110.908412 209 17681ft 224kts
15-Mar-18 10:28 43.295834 -110.941773 209 19916ft 207kts
15-Mar-18 10:29 43.244049 -110.972913 206 21769ft 203kts
15-Mar-18 10:30 43.199293 -111.017761 225 23313ft 202kts
15-Mar-18 10:31 43.160255 -111.074192 225 24748ft 206kts
15-Mar-18 10:32 43.120407 -111.132502 225 26001ft 210kts
15-Mar-18 10:33 43.080024 -111.191608 225 27116ft 211kts
15-Mar-18 10:34 43.039537 -111.250783 225 28051ft 213kts
15-Mar-18 10:35 42.999472 -111.309209 226 29098ft 209kts
15-Mar-18 10:36 42.959036 -111.368116 223 29873ft 219kts
15-Mar-18 10:37 42.917502 -111.428366 224 30823ft 218kts
15-Mar-18 10:38 42.875963 -111.488554 225 31649ft 220kts
15-Mar-18 10:39 42.833970 -111.549279 225 32383ft 222kts
15-Mar-18 10:40 42.791269 -111.610894 226 33038ft 225kts
15-Mar-18 10:41 42.748316 -111.672753 226 33704ft 225kts
15-Mar-18 10:42 42.704902 -111.735123 226 34284ft 226kts
15-Mar-18 10:43 42.661453 -111.797426 226 34817ft 227kts
15-Mar-18 10:44 42.617581 -111.860179 226 35238ft 231kts
15-Mar-18 10:45 42.573064 -111.923713 226 35663ft 232kts
15-Mar-18 10:46 42.527872 -111.988103 226 35856ft 242kts
15-Mar-18 10:47 42.479928 -112.056174 226 35881ft 256kts
15-Mar-18 10:48 42.429432 -112.127724 226 35911ft 267kts
15-Mar-18 10:49 42.377148 -112.201597 226 35938ft 276kts
15-Mar-18 10:50 42.323348 -112.277684 226 35960ft 282kts
15-Mar-18 10:51 42.268630 -112.354796 226 35972ft 286kts
15-Mar-18 10:52 42.213538 -112.432139 227 35978ft 285kts
15-Mar-18 10:53 42.174214 -112.525276 244 35968ft 287kts
15-Mar-18 10:54 42.141423 -112.623224 244 35953ft 286kts
15-Mar-18 10:55 42.108370 -112.721300 244 35948ft 287kts
15-Mar-18 10:56 42.075185 -112.818925 244 35939ft 288kts
15-Mar-18 10:57 42.041788 -112.916677 244 35946ft 287kts
15-Mar-18 10:58 42.008306 -113.014282 244 35944ft 287kts
15-Mar-18 10:59 41.974872 -113.111377 244 35968ft 285kts
15-Mar-18 11:00 41.941559 -113.207897 244 35972ft 284kts
15-Mar-18 11:01 41.908172 -113.304679 244 35973ft 285kts
15-Mar-18 11:02 41.874645 -113.401199 243 35967ft 285kts
15-Mar-18 11:03 41.840787 -113.498210 243 35930ft 289kts
15-Mar-18 11:04 41.806762 -113.595336 243 35959ft 286kts
15-Mar-18 11:05 41.772890 -113.691708 243 35950ft 287kts
15-Mar-18 11:06 41.738407 -113.789479 243 35912ft 291kts
15-Mar-18 11:07 41.703726 -113.887487 243 35926ft 291kts
15-Mar-18 11:08 41.668812 -113.985794 243 35898ft 294kts
15-Mar-18 11:09 41.633809 -114.084026 243 35950ft 288kts
15-Mar-18 11:10 41.599157 -114.180948 243 35924ft 292kts
15-Mar-18 11:11 41.563878 -114.279271 243 35903ft 293kts
15-Mar-18 11:12 41.528644 -114.377130 243 35900ft 293kts
15-Mar-18 11:13 41.493205 -114.475205 243 35893ft 294kts
15-Mar-18 11:14 41.457619 -114.573355 243 35893ft 293kts
15-Mar-18 11:15 41.422090 -114.671011 243 35906ft 292kts
15-Mar-18 11:16 41.386535 -114.768407 243 35915ft 292kts
15-Mar-18 11:17 41.350963 -114.865532 243 35930ft 291kts
15-Mar-18 11:18 41.315516 -114.961988 243 35945ft 290kts
15-Mar-18 11:19 41.279785 -115.058893 243 35917ft 293kts
15-Mar-18 11:20 41.243900 -115.155880 243 35948ft 291kts
15-Mar-18 11:21 41.208140 -115.252206 243 35948ft 292kts
15-Mar-18 11:22 41.172005 -115.349210 243 35953ft 291kts
15-Mar-18 11:23 41.136077 -115.445341 243 35952ft 291kts
15-Mar-18 11:24 41.099517 -115.542837 243 35926ft 297kts
15-Mar-18 11:25 41.062814 -115.640373 243 35929ft 296kts
15-Mar-18 11:26 41.025834 -115.738311 243 35918ft 298kts
15-Mar-18 11:27 40.988712 -115.836308 243 35923ft 297kts
15-Mar-18 11:28 40.951416 -115.934431 243 35915ft 298kts
15-Mar-18 11:29 40.913893 -116.032819 243 35909ft 300kts
15-Mar-18 11:30 40.876126 -116.131475 243 35914ft 300kts
15-Mar-18 11:31 40.838769 -116.228753 243 35917ft 301kts
15-Mar-18 11:32 40.800450 -116.328186 244 35925ft 301kts
15-Mar-18 11:33 40.762498 -116.426362 244 35925ft 301kts
15-Mar-18 11:34 40.724234 -116.524978 244 35930ft 302kts
15-Mar-18 11:35 40.685654 -116.624054 244 35933ft 302kts
15-Mar-18 11:36 40.647481 -116.722139 244 35934ft 301kts
15-Mar-18 11:37 40.609103 -116.820370 244 35935ft 302kts
15-Mar-18 11:38 40.570856 -116.918919 247 35935ft 301kts
15-Mar-18 11:39 40.542353 -117.022019 252 35935ft 300kts
15-Mar-18 11:40 40.515599 -117.126387 252 35935ft 300kts
15-Mar-18 11:41 40.488585 -117.230258 252 35935ft 301kts
15-Mar-18 11:42 40.461305 -117.334164 252 35935ft 301kts
15-Mar-18 11:43 40.433796 -117.438322 252 35935ft 301kts
15-Mar-18 11:44 40.406288 -117.541986 252 35935ft 301kts
15-Mar-18 11:45 40.378648 -117.645720 252 35938ft 300kts
15-Mar-18 11:46 40.350881 -117.749479 252 35922ft 302kts
15-Mar-18 11:47 40.323028 -117.853077 252 35923ft 302kts
15-Mar-18 11:48 40.294974 -117.957007 252 35923ft 301kts
15-Mar-18 11:49 40.266911 -118.060544 252 35926ft 301kts
15-Mar-18 11:50 40.238821 -118.163716 253 35930ft 301kts
15-Mar-18 11:51 40.210504 -118.267315 253 35931ft 302kts
15-Mar-18 11:52 40.182232 -118.370863 253 35933ft 302kts
15-Mar-18 11:53 40.153808 -118.474344 252 35935ft 302kts
15-Mar-18 11:54 40.125306 -118.577269 251 35936ft 301kts
15-Mar-18 11:55 40.079089 -118.669651 236 35939ft 306kts
15-Mar-18 11:56 40.028051 -118.758867 237 35938ft 307kts
15-Mar-18 11:57 39.978015 -118.848809 238 35944ft 306kts
15-Mar-18 11:58 39.928708 -118.938408 238 35950ft 302kts
15-Mar-18 11:59 39.879798 -119.027447 238 35952ft 302kts
15-Mar-18 12:00 39.830863 -119.116351 238 35964ft 299kts
15-Mar-18 12:01 39.790522 -119.189461 238 35973ft 296kts
15-Mar-18 12:02 39.734742 -119.290303 238 35978ft 294kts
15-Mar-18 12:03 39.694372 -119.363185 238 35392ft 309kts
15-Mar-18 12:04 39.632857 -119.474120 238 33305ft 334kts
15-Mar-18 12:05 39.587253 -119.555935 239 31811ft 336kts
15-Mar-18 12:06 39.532851 -119.654900 244 30012ft 331kts
15-Mar-18 12:07 39.485543 -119.775826 252 27921ft 317kts
15-Mar-18 12:08 39.454609 -119.860565 252 26539ft 308kts
15-Mar-18 12:09 39.418315 -119.958766 253 24935ft 296kts
15-Mar-18 12:10 39.383460 -120.052425 254 24018ft 293kts
15-Mar-18 12:11 39.347362 -120.149382 254 23947ft 299kts
15-Mar-18 12:12 39.311611 -120.243963 255 22980ft 288kts
15-Mar-18 12:13 39.277094 -120.335401 255 21371ft 280kts
15-Mar-18 12:14 39.243158 -120.425275 254 19856ft 276kts
15-Mar-18 12:15 39.209692 -120.513591 253 18360ft 272kts
15-Mar-18 12:16 39.176528 -120.600697 252 16859ft 267kts
15-Mar-18 12:17 39.144108 -120.685601 250 15355ft 261kts
15-Mar-18 12:18 39.112218 -120.769008 248 13857ft 259kts
15-Mar-18 12:19 39.080715 -120.850881 247 12298ft 251kts
15-Mar-18 12:20 39.050029 -120.930400 246 10700ft 245kts
15-Mar-18 12:21 39.020175 -121.007646 246 9101ft 232kts
15-Mar-18 12:22 38.992265 -121.079739 246 7533ft 219kts
15-Mar-18 12:23 38.965533 -121.148831 245 6033ft 213kts
15-Mar-18 12:24 38.939214 -121.216884 243 4536ft 214kts
15-Mar-18 12:25 38.912621 -121.285188 241 3221ft 216kts
15-Mar-18 12:26 38.886715 -121.351480 241 2281ft 198kts
15-Mar-18 12:27 38.860865 -121.404488 201 2187ft 160kts
15-Mar-18 12:28 38.819082 -121.399054 183 2199ft 143kts
15-Mar-18 12:29 38.787395 -121.399409 184 2163ft 101kts
15-Mar-18 12:30 38.759046 -121.399646 184 1638ft 102kts
15-Mar-18 12:31 38.734000 -121.400206 184 1072ft 83kts
15-Mar-18 12:32 38.711044 -121.400542 179 620ft 80kts
15-Mar-18 12:33 38.687894 -121.400662 175 207ft 82kts
15-Mar-18 12:34 38.672185 -121.400575 179 77ft 25kts
15-Mar-18 12:35 38.670823 -121.399769 96 77ft 5kts
15-Mar-18 12:36 38.668294 -121.398799 179 77ft 18kts
15-Mar-18 12:37 38.663567 -121.398797 180 77ft 21kts
15-Mar-18 12:38 38.660025 -121.397822 142 77ft 8kts
15-Mar-18 12:39 38.659903 -121.395726 89 77ft 0kts
15-Mar-18 12:40 38.659903 -121.395725 89 77ft 0kts

Navigation Log

Ident Type
Flight plan parsing failed, navigation log unavailable